sensor_id;sensor_type;location;lat;lon;timestamp;pressure;altitude;pressure_sealevel;temperature;humidity
72395;BME280;60384;48.152;11.614;2024-01-25T00:01:51;96565.16;;;9.96;62.67
72395;BME280;60384;48.152;11.614;2024-01-25T00:04:53;96586.16;;;10.07;62.73
72395;BME280;60384;48.152;11.614;2024-01-25T00:07:55;96576.34;;;10.08;63.01
72395;BME280;60384;48.152;11.614;2024-01-25T00:10:57;96583.31;;;10.09;62.96
72395;BME280;60384;48.152;11.614;2024-01-25T00:13:59;96572.16;;;10.05;62.56
72395;BME280;60384;48.152;11.614;2024-01-25T00:17:02;96568.47;;;9.90;62.40
72395;BME280;60384;48.152;11.614;2024-01-25T00:20:05;96586.81;;;10.01;62.99
72395;BME280;60384;48.152;11.614;2024-01-25T00:23:07;96580.50;;;10.02;63.06
72395;BME280;60384;48.152;11.614;2024-01-25T00:26:09;96487.03;;;9.39;63.16
72395;BME280;60384;48.152;11.614;2024-01-25T00:29:11;96596.28;;;10.04;63.26
72395;BME280;60384;48.152;11.614;2024-01-25T00:32:14;96577.97;;;9.93;63.50
72395;BME280;60384;48.152;11.614;2024-01-25T00:35:17;96590.31;;;10.02;63.50
72395;BME280;60384;48.152;11.614;2024-01-25T00:38:22;96587.44;;;10.03;63.42
72395;BME280;60384;48.152;11.614;2024-01-25T00:41:24;96586.97;;;10.00;63.64
72395;BME280;60384;48.152;11.614;2024-01-25T00:44:27;96555.00;;;9.84;63.50
72395;BME280;60384;48.152;11.614;2024-01-25T00:47:31;96587.44;;;10.03;63.77
72395;BME280;60384;48.152;11.614;2024-01-25T00:50:33;96585.47;;;10.05;63.53
72395;BME280;60384;48.152;11.614;2024-01-25T00:53:36;96538.22;;;9.83;63.80
72395;BME280;60384;48.152;11.614;2024-01-25T00:56:38;96576.00;;;10.03;63.59
72395;BME280;60384;48.152;11.614;2024-01-25T00:59:41;96590.63;;;10.07;63.54
72395;BME280;60384;48.152;11.614;2024-01-25T01:02:45;96579.00;;;10.00;63.51
72395;BME280;60384;48.152;11.614;2024-01-25T01:05:48;96599.44;;;10.07;63.25
72395;BME280;60384;48.152;11.614;2024-01-25T01:08:50;96568.16;;;9.93;63.52
72395;BME280;60384;48.152;11.614;2024-01-25T01:11:52;96525.28;;;9.54;63.35
72395;BME280;60384;48.152;11.614;2024-01-25T01:14:54;96608.94;;;10.10;63.36
72395;BME280;60384;48.152;11.614;2024-01-25T01:17:58;96597.06;;;9.88;63.57
72395;BME280;60384;48.152;11.614;2024-01-25T01:21:00;96630.75;;;10.14;63.49
72395;BME280;60384;48.152;11.614;2024-01-25T01:24:02;96628.91;;;10.14;63.29
72395;BME280;60384;48.152;11.614;2024-01-25T01:27:04;96620.78;;;10.16;63.51
72395;BME280;60384;48.152;11.614;2024-01-25T01:30:07;96619.78;;;10.17;63.31
72395;BME280;60384;48.152;11.614;2024-01-25T01:33:11;96625.09;;;10.17;63.02
72395;BME280;60384;48.152;11.614;2024-01-25T01:36:13;96600.28;;;10.08;62.78
72395;BME280;60384;48.152;11.614;2024-01-25T01:39:15;96609.69;;;10.20;63.35
72395;BME280;60384;48.152;11.614;2024-01-25T01:42:16;96620.34;;;10.20;63.11
72395;BME280;60384;48.152;11.614;2024-01-25T01:45:18;96608.00;;;10.19;63.08
72395;BME280;60384;48.152;11.614;2024-01-25T01:48:22;96608.31;;;10.16;62.91
72395;BME280;60384;48.152;11.614;2024-01-25T01:51:24;96600.28;;;10.08;63.40
72395;BME280;60384;48.152;11.614;2024-01-25T01:54:26;96608.97;;;10.18;63.09
72395;BME280;60384;48.152;11.614;2024-01-25T01:57:29;96611.78;;;10.17;62.99
72395;BME280;60384;48.152;11.614;2024-01-25T02:00:31;96619.50;;;10.20;63.29
72395;BME280;60384;48.152;11.614;2024-01-25T02:03:36;96607.03;;;10.20;63.32
72395;BME280;60384;48.152;11.614;2024-01-25T02:06:38;96602.69;;;10.19;63.06
72395;BME280;60384;48.152;11.614;2024-01-25T02:09:40;96538.16;;;9.75;63.10
72395;BME280;60384;48.152;11.614;2024-01-25T02:12:42;96576.16;;;10.01;63.21
72395;BME280;60384;48.152;11.614;2024-01-25T02:15:44;96596.66;;;10.17;63.19
72395;BME280;60384;48.152;11.614;2024-01-25T02:18:48;96542.69;;;9.83;63.30
72395;BME280;60384;48.152;11.614;2024-01-25T02:21:51;96588.66;;;10.09;63.30
72395;BME280;60384;48.152;11.614;2024-01-25T02:24:56;96591.97;;;10.11;63.32
72395;BME280;60384;48.152;11.614;2024-01-25T02:27:58;96550.31;;;9.86;63.50
72395;BME280;60384;48.152;11.614;2024-01-25T02:31:02;96517.53;;;9.69;63.31
72395;BME280;60384;48.152;11.614;2024-01-25T02:34:04;96544.69;;;9.89;63.25
72395;BME280;60384;48.152;11.614;2024-01-25T02:37:06;96593.72;;;10.20;63.24
72395;BME280;60384;48.152;11.614;2024-01-25T02:40:10;96405.63;;;8.96;63.55
72395;BME280;60384;48.152;11.614;2024-01-25T02:43:12;96581.88;;;10.23;63.31
72395;BME280;60384;48.152;11.614;2024-01-25T02:46:14;96580.56;;;10.19;63.48
72395;BME280;60384;48.152;11.614;2024-01-25T02:49:16;96582.38;;;10.18;63.42
72395;BME280;60384;48.152;11.614;2024-01-25T02:52:18;96582.53;;;10.17;63.26
72395;BME280;60384;48.152;11.614;2024-01-25T02:55:24;96542.84;;;9.89;63.43
72395;BME280;60384;48.152;11.614;2024-01-25T02:58:26;96592.81;;;10.12;63.26
72395;BME280;60384;48.152;11.614;2024-01-25T03:01:28;96578.19;;;10.16;63.26
72395;BME280;60384;48.152;11.614;2024-01-25T03:04:30;96571.34;;;10.05;63.35
72395;BME280;60384;48.152;11.614;2024-01-25T03:07:32;96580.69;;;10.17;63.37
72395;BME280;60384;48.152;11.614;2024-01-25T03:10:35;96578.88;;;10.18;63.35
72395;BME280;60384;48.152;11.614;2024-01-25T03:13:37;96559.84;;;9.96;63.05
72395;BME280;60384;48.152;11.614;2024-01-25T03:16:39;96579.19;;;10.15;63.18
72395;BME280;60384;48.152;11.614;2024-01-25T03:19:41;96553.53;;;10.05;63.35
72395;BME280;60384;48.152;11.614;2024-01-25T03:22:42;96558.91;;;10.14;63.18
72395;BME280;60384;48.152;11.614;2024-01-25T03:25:46;96546.59;;;10.13;63.42
72395;BME280;60384;48.152;11.614;2024-01-25T03:28:48;96546.41;;;10.14;63.28
72395;BME280;60384;48.152;11.614;2024-01-25T03:31:50;96552.56;;;10.15;63.50
72395;BME280;60384;48.152;11.614;2024-01-25T03:34:52;96553.56;;;10.14;63.44
72395;BME280;60384;48.152;11.614;2024-01-25T03:37:54;96549.25;;;10.13;63.40
72395;BME280;60384;48.152;11.614;2024-01-25T03:40:57;96540.06;;;10.07;63.42
72395;BME280;60384;48.152;11.614;2024-01-25T03:43:59;96518.59;;;9.92;63.41
72395;BME280;60384;48.152;11.614;2024-01-25T03:47:02;96558.06;;;10.13;63.42
72395;BME280;60384;48.152;11.614;2024-01-25T03:50:04;96548.56;;;10.10;63.40
72395;BME280;60384;48.152;11.614;2024-01-25T03:53:07;96523.25;;;9.90;63.68
72395;BME280;60384;48.152;11.614;2024-01-25T03:56:12;96544.88;;;9.95;63.52
72395;BME280;60384;48.152;11.614;2024-01-25T03:59:14;96554.53;;;10.04;63.80
72395;BME280;60384;48.152;11.614;2024-01-25T04:02:16;96559.03;;;10.04;63.71
72395;BME280;60384;48.152;11.614;2024-01-25T04:05:18;96568.19;;;10.01;63.67
72395;BME280;60384;48.152;11.614;2024-01-25T04:08:19;96570.16;;;9.99;63.89
72395;BME280;60384;48.152;11.614;2024-01-25T04:11:23;96500.84;;;9.51;63.63
72395;BME280;60384;48.152;11.614;2024-01-25T04:14:25;96573.66;;;10.00;63.63
72395;BME280;60384;48.152;11.614;2024-01-25T04:17:26;96581.50;;;10.01;63.68
72395;BME280;60384;48.152;11.614;2024-01-25T04:20:29;96582.47;;;10.00;63.63
72395;BME280;60384;48.152;11.614;2024-01-25T04:23:32;96587.97;;;9.99;63.41
72395;BME280;60384;48.152;11.614;2024-01-25T04:26:35;96595.13;;;9.98;63.60
72395;BME280;60384;48.152;11.614;2024-01-25T04:29:38;96595.94;;;9.99;63.92
72395;BME280;60384;48.152;11.614;2024-01-25T04:32:40;96590.75;;;9.89;63.54
72395;BME280;60384;48.152;11.614;2024-01-25T04:35:43;96621.56;;;10.00;63.73
72395;BME280;60384;48.152;11.614;2024-01-25T04:38:46;96611.91;;;9.99;63.97
72395;BME280;60384;48.152;11.614;2024-01-25T04:41:49;96613.72;;;9.98;63.62
72395;BME280;60384;48.152;11.614;2024-01-25T04:44:51;96514.44;;;9.39;63.81
72395;BME280;60384;48.152;11.614;2024-01-25T04:47:53;96549.22;;;9.54;64.05
72395;BME280;60384;48.152;11.614;2024-01-25T04:50:57;96616.34;;;9.90;63.92
72395;BME280;60384;48.152;11.614;2024-01-25T04:53:59;96573.66;;;9.58;64.08
72395;BME280;60384;48.152;11.614;2024-01-25T04:57:03;96623.50;;;9.90;64.10
72395;BME280;60384;48.152;11.614;2024-01-25T05:00:08;96606.63;;;9.73;63.94
72395;BME280;60384;48.152;11.614;2024-01-25T05:03:10;96588.31;;;9.62;64.10
72395;BME280;60384;48.152;11.614;2024-01-25T05:06:12;96629.13;;;9.87;63.95
72395;BME280;60384;48.152;11.614;2024-01-25T05:09:14;96631.97;;;9.85;64.12
72395;BME280;60384;48.152;11.614;2024-01-25T05:12:18;96639.13;;;9.85;64.34
72395;BME280;60384;48.152;11.614;2024-01-25T05:15:20;96564.56;;;9.34;64.07
72395;BME280;60384;48.152;11.614;2024-01-25T05:18:25;96656.38;;;9.81;64.03
72395;BME280;60384;48.152;11.614;2024-01-25T05:21:27;96651.22;;;9.79;64.38
72395;BME280;60384;48.152;11.614;2024-01-25T05:24:29;96625.53;;;9.62;64.37
72395;BME280;60384;48.152;11.614;2024-01-25T05:27:32;96658.69;;;9.75;64.46
72395;BME280;60384;48.152;11.614;2024-01-25T05:30:38;96658.69;;;9.75;64.31
72395;BME280;60384;48.152;11.614;2024-01-25T05:33:43;96656.19;;;9.74;64.53
72395;BME280;60384;48.152;11.614;2024-01-25T05:36:47;96661.66;;;9.72;64.47
72395;BME280;60384;48.152;11.614;2024-01-25T05:39:50;96593.47;;;9.29;64.54
72395;BME280;60384;48.152;11.614;2024-01-25T05:42:53;96651.97;;;9.63;64.45
72395;BME280;60384;48.152;11.614;2024-01-25T05:45:57;96661.97;;;9.69;64.31
72395;BME280;60384;48.152;11.614;2024-01-25T05:48:59;96664.47;;;9.71;64.33
72395;BME280;60384;48.152;11.614;2024-01-25T05:52:01;96682.94;;;9.72;64.29
72395;BME280;60384;48.152;11.614;2024-01-25T05:55:04;96659.81;;;9.65;64.37
72395;BME280;60384;48.152;11.614;2024-01-25T05:58:08;96637.69;;;9.38;64.29
72395;BME280;60384;48.152;11.614;2024-01-25T06:01:10;96684.91;;;9.70;64.37
72395;BME280;60384;48.152;11.614;2024-01-25T06:04:12;96691.03;;;9.63;64.16
72395;BME280;60384;48.152;11.614;2024-01-25T06:07:14;96680.03;;;9.58;64.15
72395;BME280;60384;48.152;11.614;2024-01-25T06:10:16;96646.97;;;9.34;64.48
72395;BME280;60384;48.152;11.614;2024-01-25T06:13:19;96695.34;;;9.64;64.54
72395;BME280;60384;48.152;11.614;2024-01-25T06:16:21;96610.75;;;9.08;64.47
72395;BME280;60384;48.152;11.614;2024-01-25T06:19:25;96701.81;;;9.61;64.50
72395;BME280;60384;48.152;11.614;2024-01-25T06:22:27;96623.50;;;9.04;64.47
72395;BME280;60384;48.152;11.614;2024-01-25T06:25:29;96721.56;;;9.59;64.38
72395;BME280;60384;48.152;11.614;2024-01-25T06:28:33;96736.00;;;9.56;64.42
72395;BME280;60384;48.152;11.614;2024-01-25T06:31:41;96723.97;;;9.44;64.70
72395;BME280;60384;48.152;11.614;2024-01-25T06:34:43;96733.81;;;9.52;64.64
72395;BME280;60384;48.152;11.614;2024-01-25T06:37:45;96695.31;;;9.12;64.59
72395;BME280;60384;48.152;11.614;2024-01-25T06:40:50;96747.91;;;9.44;64.54
72395;BME280;60384;48.152;11.614;2024-01-25T06:43:53;96680.06;;;8.96;64.61
72395;BME280;60384;48.152;11.614;2024-01-25T06:46:55;96726.88;;;9.15;64.70
72395;BME280;60384;48.152;11.614;2024-01-25T06:49:57;96688.56;;;8.82;64.82
72395;BME280;60384;48.152;11.614;2024-01-25T06:52:59;96725.75;;;9.00;64.78
72395;BME280;60384;48.152;11.614;2024-01-25T06:56:01;96774.19;;;9.29;65.14
72395;BME280;60384;48.152;11.614;2024-01-25T06:59:04;96767.19;;;9.28;64.95
72395;BME280;60384;48.152;11.614;2024-01-25T07:02:06;96751.72;;;9.06;65.01
72395;BME280;60384;48.152;11.614;2024-01-25T07:05:08;96779.56;;;9.20;65.21
72395;BME280;60384;48.152;11.614;2024-01-25T07:08:10;96782.69;;;9.15;65.19
72395;BME280;60384;48.152;11.614;2024-01-25T07:11:13;96788.81;;;9.16;65.17
72395;BME280;60384;48.152;11.614;2024-01-25T07:14:18;96724.56;;;8.77;65.26
72395;BME280;60384;48.152;11.614;2024-01-25T07:17:20;96770.91;;;9.00;65.12
72395;BME280;60384;48.152;11.614;2024-01-25T07:20:22;96760.22;;;8.92;65.12
72395;BME280;60384;48.152;11.614;2024-01-25T07:23:24;96737.00;;;8.76;65.04
72395;BME280;60384;48.152;11.614;2024-01-25T07:26:27;96630.78;;;8.13;65.07
72395;BME280;60384;48.152;11.614;2024-01-25T07:29:32;96810.72;;;9.27;64.65
72395;BME280;60384;48.152;11.614;2024-01-25T07:32:34;96806.69;;;9.23;64.93
72395;BME280;60384;48.152;11.614;2024-01-25T07:35:36;96752.59;;;8.97;64.64
72395;BME280;60384;48.152;11.614;2024-01-25T07:38:42;96810.03;;;9.25;64.69
72395;BME280;60384;48.152;11.614;2024-01-25T07:41:44;96828.63;;;9.43;64.72
72395;BME280;60384;48.152;11.614;2024-01-25T07:44:47;96845.41;;;9.44;64.89
72395;BME280;60384;48.152;11.614;2024-01-25T07:47:50;96838.56;;;9.41;64.80
72395;BME280;60384;48.152;11.614;2024-01-25T07:50:52;96842.75;;;9.44;64.79
72395;BME280;60384;48.152;11.614;2024-01-25T07:53:55;96839.47;;;9.50;64.64
72395;BME280;60384;48.152;11.614;2024-01-25T07:56:57;96816.47;;;9.40;64.45
72395;BME280;60384;48.152;11.614;2024-01-25T08:00:00;96822.78;;;9.39;64.28
72395;BME280;60384;48.152;11.614;2024-01-25T08:03:05;96853.97;;;9.55;64.56
72395;BME280;60384;48.152;11.614;2024-01-25T08:06:07;96814.75;;;9.31;64.34
72395;BME280;60384;48.152;11.614;2024-01-25T08:09:09;96753.53;;;9.05;64.22
72395;BME280;60384;48.152;11.614;2024-01-25T08:12:11;96839.56;;;9.58;64.31
72395;BME280;60384;48.152;11.614;2024-01-25T08:15:14;96852.56;;;9.61;64.23
72395;BME280;60384;48.152;11.614;2024-01-25T08:18:16;96846.94;;;9.64;64.34
72395;BME280;60384;48.152;11.614;2024-01-25T08:21:19;96778.03;;;9.35;64.17
72395;BME280;60384;48.152;11.614;2024-01-25T08:24:21;96823.13;;;9.80;63.96
72395;BME280;60384;48.152;11.614;2024-01-25T08:27:26;96772.97;;;9.42;63.86
72395;BME280;60384;48.152;11.614;2024-01-25T08:30:32;96815.38;;;9.69;63.88
72395;BME280;60384;48.152;11.614;2024-01-25T08:33:34;96834.44;;;9.82;63.76
72395;BME280;60384;48.152;11.614;2024-01-25T08:36:36;96808.38;;;9.68;63.51
72395;BME280;60384;48.152;11.614;2024-01-25T08:39:38;96832.78;;;9.81;63.53
72395;BME280;60384;48.152;11.614;2024-01-25T08:42:40;96842.88;;;9.78;63.51
72395;BME280;60384;48.152;11.614;2024-01-25T08:45:43;96854.50;;;9.77;63.38
72395;BME280;60384;48.152;11.614;2024-01-25T08:48:45;96802.78;;;9.35;63.12
72395;BME280;60384;48.152;11.614;2024-01-25T08:51:47;96794.59;;;9.47;63.20
72395;BME280;60384;48.152;11.614;2024-01-25T08:54:49;96848.25;;;9.86;63.10
72395;BME280;60384;48.152;11.614;2024-01-25T08:57:51;96867.41;;;9.89;63.14
72395;BME280;60384;48.152;11.614;2024-01-25T09:00:55;96865.13;;;9.94;62.56
72395;BME280;60384;48.152;11.614;2024-01-25T09:03:57;96872.28;;;9.94;62.85
72395;BME280;60384;48.152;11.614;2024-01-25T09:07:04;96706.56;;;9.06;62.74
72395;BME280;60384;48.152;11.614;2024-01-25T09:10:07;96862.34;;;10.04;63.02
72395;BME280;60384;48.152;11.614;2024-01-25T09:13:09;96868.38;;;10.06;62.81
72395;BME280;60384;48.152;11.614;2024-01-25T09:16:13;96880.00;;;10.05;62.10
72395;BME280;60384;48.152;11.614;2024-01-25T09:19:16;96836.88;;;9.75;62.17
72395;BME280;60384;48.152;11.614;2024-01-25T09:22:18;96593.41;;;8.24;61.98
72395;BME280;60384;48.152;11.614;2024-01-25T09:25:20;96829.03;;;9.92;61.42
72395;BME280;60384;48.152;11.614;2024-01-25T09:28:22;96894.84;;;10.51;60.94
72395;BME280;60384;48.152;11.614;2024-01-25T09:31:25;96893.50;;;11.23;59.83
72395;BME280;60384;48.152;11.614;2024-01-25T09:34:28;96891.44;;;11.75;59.02
72395;BME280;60384;48.152;11.614;2024-01-25T09:37:29;96881.28;;;11.63;58.84
72395;BME280;60384;48.152;11.614;2024-01-25T09:40:31;96554.69;;;9.53;57.72
72395;BME280;60384;48.152;11.614;2024-01-25T09:43:33;96898.59;;;11.59;58.45
72395;BME280;60384;48.152;11.614;2024-01-25T09:46:37;96869.81;;;11.78;58.13
72395;BME280;60384;48.152;11.614;2024-01-25T09:49:41;96845.94;;;12.09;57.14
72395;BME280;60384;48.152;11.614;2024-01-25T09:52:45;96841.28;;;11.87;57.34
72395;BME280;60384;48.152;11.614;2024-01-25T09:55:57;96891.50;;;11.92;57.80
72395;BME280;60384;48.152;11.614;2024-01-25T09:59:03;96878.75;;;11.69;58.34
72395;BME280;60384;48.152;11.614;2024-01-25T10:02:07;96877.91;;;11.44;57.26
72395;BME280;60384;48.152;11.614;2024-01-25T10:05:11;96915.00;;;11.88;57.45
72395;BME280;60384;48.152;11.614;2024-01-25T10:08:13;96912.09;;;11.65;56.56
72395;BME280;60384;48.152;11.614;2024-01-25T10:11:16;96914.06;;;11.47;57.82
72395;BME280;60384;48.152;11.614;2024-01-25T10:14:18;96888.66;;;11.19;58.15
72395;BME280;60384;48.152;11.614;2024-01-25T10:17:21;96914.16;;;11.21;57.74
72395;BME280;60384;48.152;11.614;2024-01-25T10:20:23;96792.16;;;10.23;58.60
72395;BME280;60384;48.152;11.614;2024-01-25T10:23:28;96907.72;;;10.98;57.79
72395;BME280;60384;48.152;11.614;2024-01-25T10:26:30;96891.19;;;10.86;57.75
72395;BME280;60384;48.152;11.614;2024-01-25T10:29:32;96891.88;;;10.96;57.88
72395;BME280;60384;48.152;11.614;2024-01-25T10:32:37;96867.19;;;11.28;56.63
72395;BME280;60384;48.152;11.614;2024-01-25T10:35:40;96831.81;;;11.18;56.31
72395;BME280;60384;48.152;11.614;2024-01-25T10:38:48;96874.75;;;12.38;55.16
72395;BME280;60384;48.152;11.614;2024-01-25T10:41:50;96774.94;;;12.78;52.68
72395;BME280;60384;48.152;11.614;2024-01-25T10:44:53;96867.53;;;14.55;51.71
72395;BME280;60384;48.152;11.614;2024-01-25T10:47:58;96846.59;;;15.39;51.15
72395;BME280;60384;48.152;11.614;2024-01-25T10:51:01;96855.22;;;15.71;51.57
72395;BME280;60384;48.152;11.614;2024-01-25T10:54:04;96850.34;;;16.02;50.24
72395;BME280;60384;48.152;11.614;2024-01-25T10:57:08;96815.13;;;15.33;50.43
72395;BME280;60384;48.152;11.614;2024-01-25T11:00:11;96834.13;;;15.17;50.99
72395;BME280;60384;48.152;11.614;2024-01-25T11:03:18;96803.72;;;14.95;50.89
72395;BME280;60384;48.152;11.614;2024-01-25T11:06:20;96796.50;;;14.37;52.23
72395;BME280;60384;48.152;11.614;2024-01-25T11:09:24;96838.13;;;14.10;53.60
72395;BME280;60384;48.152;11.614;2024-01-25T11:12:26;96833.09;;;14.30;53.60
72395;BME280;60384;48.152;11.614;2024-01-25T11:15:30;96813.97;;;15.42;50.56
72395;BME280;60384;48.152;11.614;2024-01-25T11:18:34;96799.41;;;16.15;50.00
72395;BME280;60384;48.152;11.614;2024-01-25T11:22:19;96801.72;;;16.81;49.07
72395;BME280;60384;48.152;11.614;2024-01-25T11:25:35;96467.19;;;16.01;47.44
72395;BME280;60384;48.152;11.614;2024-01-25T11:28:45;96812.56;;;19.00;47.28
72395;BME280;60384;48.152;11.614;2024-01-25T11:32:22;96658.16;;;19.23;45.98
72395;BME280;60384;48.152;11.614;2024-01-25T11:35:26;96671.34;;;19.94;44.76
72395;BME280;60384;48.152;11.614;2024-01-25T11:38:30;96417.06;;;18.72;45.25
72395;BME280;60384;48.152;11.614;2024-01-25T11:41:32;96765.16;;;21.16;44.91
72395;BME280;60384;48.152;11.614;2024-01-25T11:44:34;96596.47;;;19.51;45.33
72395;BME280;60384;48.152;11.614;2024-01-25T11:47:37;96602.09;;;20.29;45.16
72395;BME280;60384;48.152;11.614;2024-01-25T11:50:40;96450.22;;;19.23;44.87
72395;BME280;60384;48.152;11.614;2024-01-25T11:53:42;96711.41;;;21.01;44.67
72395;BME280;60384;48.152;11.614;2024-01-25T11:56:47;96587.69;;;19.99;46.02
72395;BME280;60384;48.152;11.614;2024-01-25T11:59:49;96534.59;;;19.43;46.00
72395;BME280;60384;48.152;11.614;2024-01-25T12:02:51;96556.94;;;19.32;46.88
72395;BME280;60384;48.152;11.614;2024-01-25T12:05:56;96765.25;;;19.80;47.95
72395;BME280;60384;48.152;11.614;2024-01-25T12:09:06;96768.47;;;18.48;49.47
72395;BME280;60384;48.152;11.614;2024-01-25T12:12:09;96768.72;;;17.94;49.74
72395;BME280;60384;48.152;11.614;2024-01-25T12:15:11;96762.63;;;17.59;51.37
72395;BME280;60384;48.152;11.614;2024-01-25T12:18:13;96764.56;;;17.72;51.39
72395;BME280;60384;48.152;11.614;2024-01-25T12:21:18;96756.00;;;16.87;50.40
72395;BME280;60384;48.152;11.614;2024-01-25T12:24:20;96758.13;;;16.57;50.69
72395;BME280;60384;48.152;11.614;2024-01-25T12:27:24;96752.66;;;17.33;49.98
72395;BME280;60384;48.152;11.614;2024-01-25T12:30:26;96745.28;;;17.94;48.08
72395;BME280;60384;48.152;11.614;2024-01-25T12:33:28;96756.09;;;18.08;46.53
72395;BME280;60384;48.152;11.614;2024-01-25T12:36:31;96754.63;;;17.92;46.76
72395;BME280;60384;48.152;11.614;2024-01-25T12:39:34;96745.06;;;17.76;46.99
72395;BME280;60384;48.152;11.614;2024-01-25T12:42:35;96690.56;;;16.74;48.22
72395;BME280;60384;48.152;11.614;2024-01-25T12:45:37;96746.28;;;16.45;49.67
72395;BME280;60384;48.152;11.614;2024-01-25T12:48:39;96750.84;;;16.51;49.41
72395;BME280;60384;48.152;11.614;2024-01-25T12:51:43;96734.75;;;16.58;49.53
72395;BME280;60384;48.152;11.614;2024-01-25T12:54:45;96744.81;;;16.49;48.86
72395;BME280;60384;48.152;11.614;2024-01-25T12:57:47;96739.75;;;16.26;49.55
72395;BME280;60384;48.152;11.614;2024-01-25T13:00:48;96729.19;;;15.97;49.05
72395;BME280;60384;48.152;11.614;2024-01-25T13:03:50;96755.00;;;15.49;49.64
72395;BME280;60384;48.152;11.614;2024-01-25T13:06:55;96735.22;;;15.14;50.21
72395;BME280;60384;48.152;11.614;2024-01-25T13:09:57;96735.56;;;14.89;50.10
72395;BME280;60384;48.152;11.614;2024-01-25T13:12:59;96732.91;;;14.75;51.00
72395;BME280;60384;48.152;11.614;2024-01-25T13:16:03;96733.13;;;14.58;50.28
72395;BME280;60384;48.152;11.614;2024-01-25T13:19:05;96725.34;;;14.19;50.42
72395;BME280;60384;48.152;11.614;2024-01-25T13:22:08;96725.03;;;13.85;50.07
72395;BME280;60384;48.152;11.614;2024-01-25T13:25:11;96714.28;;;13.55;50.62
72395;BME280;60384;48.152;11.614;2024-01-25T13:28:13;96714.06;;;13.42;51.22
72395;BME280;60384;48.152;11.614;2024-01-25T13:31:15;96715.09;;;13.41;50.75
72395;BME280;60384;48.152;11.614;2024-01-25T13:34:17;96720.19;;;13.28;51.36
72395;BME280;60384;48.152;11.614;2024-01-25T13:37:20;96697.38;;;13.09;51.57
72395;BME280;60384;48.152;11.614;2024-01-25T13:40:23;96709.56;;;13.20;51.50
72395;BME280;60384;48.152;11.614;2024-01-25T13:43:25;96667.16;;;12.86;51.33
72395;BME280;60384;48.152;11.614;2024-01-25T13:46:27;96711.59;;;13.18;51.72
72395;BME280;60384;48.152;11.614;2024-01-25T13:49:28;96712.41;;;13.18;52.09
72395;BME280;60384;48.152;11.614;2024-01-25T13:52:32;96603.59;;;12.50;51.95
72395;BME280;60384;48.152;11.614;2024-01-25T13:55:34;96603.16;;;12.39;51.37
72395;BME280;60384;48.152;11.614;2024-01-25T13:58:36;96698.66;;;12.99;51.54
72395;BME280;60384;48.152;11.614;2024-01-25T14:01:37;96655.19;;;12.74;51.33
72395;BME280;60384;48.152;11.614;2024-01-25T14:04:39;96655.09;;;12.67;51.65
72395;BME280;60384;48.152;11.614;2024-01-25T14:07:49;96695.50;;;12.95;51.79
72395;BME280;60384;48.152;11.614;2024-01-25T14:10:51;96616.41;;;12.55;51.62
72395;BME280;60384;48.152;11.614;2024-01-25T14:13:52;96683.09;;;13.02;52.22
72395;BME280;60384;48.152;11.614;2024-01-25T14:16:56;96667.81;;;12.88;52.53
72395;BME280;60384;48.152;11.614;2024-01-25T14:19:58;96253.16;;;10.35;52.17
72395;BME280;60384;48.152;11.614;2024-01-25T14:23:02;96237.56;;;10.24;52.35
72395;BME280;60384;48.152;11.614;2024-01-25T14:26:04;96429.88;;;11.44;52.44
72395;BME280;60384;48.152;11.614;2024-01-25T14:29:09;96357.50;;;10.86;52.08
72395;BME280;60384;48.152;11.614;2024-01-25T14:32:28;96673.00;;;12.90;52.39
72395;BME280;60384;48.152;11.614;2024-01-25T14:35:38;96528.09;;;12.03;52.59
72395;BME280;60384;48.152;11.614;2024-01-25T14:38:44;96659.91;;;12.95;52.63
72395;BME280;60384;48.152;11.614;2024-01-25T14:41:46;96657.22;;;12.95;52.80
72395;BME280;60384;48.152;11.614;2024-01-25T14:44:50;96337.19;;;10.85;52.74
72395;BME280;60384;48.152;11.614;2024-01-25T14:47:55;96477.13;;;11.59;52.74
72395;BME280;60384;48.152;11.614;2024-01-25T14:50:57;96550.34;;;11.95;52.95
72395;BME280;60384;48.152;11.614;2024-01-25T14:54:00;96669.78;;;12.71;52.74
72395;BME280;60384;48.152;11.614;2024-01-25T14:57:03;96613.59;;;12.26;53.24
72395;BME280;60384;48.152;11.614;2024-01-25T15:00:06;96662.47;;;12.57;53.16
72395;BME280;60384;48.152;11.614;2024-01-25T15:03:11;96640.72;;;12.37;53.14
72395;BME280;60384;48.152;11.614;2024-01-25T15:06:13;96650.38;;;12.46;53.51
72395;BME280;60384;48.152;11.614;2024-01-25T15:09:17;96648.34;;;12.48;53.49
72395;BME280;60384;48.152;11.614;2024-01-25T15:12:19;96657.56;;;12.38;53.58
72395;BME280;60384;48.152;11.614;2024-01-25T15:15:20;96579.44;;;11.82;53.60
72395;BME280;60384;48.152;11.614;2024-01-25T15:18:27;96655.34;;;12.18;53.64
72395;BME280;60384;48.152;11.614;2024-01-25T15:21:29;96570.81;;;11.56;53.94
72395;BME280;60384;48.152;11.614;2024-01-25T15:24:32;96447.75;;;10.81;53.83
72395;BME280;60384;48.152;11.614;2024-01-25T15:27:34;96658.72;;;12.04;53.98
72395;BME280;60384;48.152;11.614;2024-01-25T15:30:42;96653.09;;;11.99;54.03
72395;BME280;60384;48.152;11.614;2024-01-25T15:33:44;96618.97;;;11.78;54.14
72395;BME280;60384;48.152;11.614;2024-01-25T15:36:46;96649.28;;;11.94;54.35
72395;BME280;60384;48.152;11.614;2024-01-25T15:39:50;96653.13;;;11.91;54.19
72395;BME280;60384;48.152;11.614;2024-01-25T15:42:52;96660.63;;;11.88;54.37
72395;BME280;60384;48.152;11.614;2024-01-25T15:45:56;96654.16;;;11.82;54.52
72395;BME280;60384;48.152;11.614;2024-01-25T15:49:00;96654.16;;;11.82;54.61
72395;BME280;60384;48.152;11.614;2024-01-25T15:52:03;96548.59;;;11.16;54.64
72395;BME280;60384;48.152;11.614;2024-01-25T15:55:07;96630.97;;;11.66;54.32
72395;BME280;60384;48.152;11.614;2024-01-25T15:58:09;96649.13;;;11.71;54.54
72395;BME280;60384;48.152;11.614;2024-01-25T16:01:11;96579.91;;;11.22;54.68